createdAt,value
2023-04-16T14:45:32.476Z,102122.41
2023-04-16T14:47:59.134Z,102113.56
2023-04-16T14:50:25.774Z,102115.28
2023-04-16T14:52:55.841Z,102114.53
2023-04-16T14:55:22.486Z,102117.91
2023-04-16T14:57:49.132Z,102123.09
2023-04-16T15:00:18.816Z,102106.31
2023-04-16T15:02:47.256Z,102111.69
2023-04-16T15:05:14.206Z,102109.81
2023-04-16T15:07:42.097Z,102103.03
2023-04-16T15:10:17.256Z,102104.94
2023-04-16T15:12:44.162Z,102118.31
2023-04-16T15:15:12.941Z,102104.91
2023-04-16T15:17:39.743Z,102109.25
2023-04-16T15:20:09.846Z,102100.94
2023-04-16T15:22:36.618Z,102098.72
2023-04-16T15:25:06.540Z,102100.84
2023-04-16T15:27:33.307Z,102108.28
2023-04-16T15:29:59.943Z,102104.34
2023-04-16T15:32:28.987Z,102103.75
2023-04-16T15:35:01.350Z,102103.94
2023-04-16T15:37:27.968Z,102102.47
2023-04-16T15:39:56.811Z,102100.34
2023-04-16T15:42:24.292Z,102104.44
2023-04-16T15:44:51.857Z,102102.28
2023-04-16T15:47:18.537Z,102101.69
2023-04-16T15:49:45.182Z,102102.88
2023-04-16T15:52:14.526Z,102109.34
2023-04-16T15:54:41.302Z,102105.16
2023-04-16T15:57:09.279Z,102106.31
2023-04-16T15:59:36.079Z,102101.09
2023-04-16T16:02:06.027Z,102102.91
2023-04-16T16:04:34.107Z,102103.19
2023-04-16T16:07:02.898Z,102106.31
2023-04-16T16:09:30.580Z,102090.16
2023-04-16T16:12:02.506Z,102107.38
2023-04-16T16:14:29.125Z,102106.91
2023-04-16T16:16:58.601Z,102113.50
2023-04-16T16:19:29.089Z,102113.00
2023-04-16T16:21:55.970Z,102105.44
2023-04-16T16:24:24.760Z,102111.88
2023-04-16T16:26:51.428Z,102113.88
2023-04-16T16:29:17.993Z,102107.09
2023-04-16T16:31:46.609Z,102116.06
2023-04-16T16:34:21.469Z,102115.34
2023-04-16T16:36:48.874Z,102117.25
2023-04-16T16:39:19.191Z,102113.03
2023-04-16T16:41:45.853Z,102120.19
2023-04-16T16:44:13.289Z,102125.56
2023-04-16T16:46:40.314Z,102117.78
2023-04-16T16:49:11.751Z,102113.53
2023-04-16T16:51:43.254Z,102114.53
2023-04-16T16:54:10.018Z,102118.13
2023-04-16T16:56:39.115Z,102121.75
2023-04-16T16:59:06.294Z,102114.78
2023-04-16T17:01:33.196Z,102113.09
2023-04-16T17:04:00.424Z,102119.31
2023-04-16T17:06:27.361Z,102122.94
2023-04-16T17:08:53.979Z,102120.34
2023-04-16T17:11:23.044Z,102117.81
2023-04-16T17:13:49.849Z,102126.69
2023-04-16T17:16:17.763Z,102123.19
2023-04-16T17:18:44.444Z,102121.47
2023-04-16T17:21:14.584Z,102113.59
2023-04-16T17:23:42.908Z,102118.03
2023-04-16T17:26:14.017Z,102111.94
2023-04-16T17:28:40.919Z,102116.38
2023-04-16T17:31:09.617Z,102109.38
2023-04-16T17:33:39.254Z,102113.81
2023-04-16T17:36:07.356Z,102110.31
2023-04-16T17:38:36.879Z,102120.84
2023-04-16T17:41:03.500Z,102115.63
2023-04-16T17:43:42.062Z,102111.25
2023-04-16T17:46:14.544Z,102106.88
2023-04-16T17:48:41.321Z,102118.22
2023-04-16T17:51:11.850Z,102120.84
2023-04-16T17:53:42.738Z,102116.47
2023-04-16T17:56:12.713Z,102105.97
2023-04-16T17:58:39.345Z,102107.69
2023-04-16T18:01:06.573Z,102103.31
2023-04-16T18:03:33.617Z,102108.53
2023-04-16T18:06:00.802Z,102107.66
2023-04-16T18:08:27.913Z,102108.50
2023-04-16T18:10:57.950Z,102109.34
2023-04-16T18:13:26.846Z,102112.81
2023-04-16T18:15:53.924Z,102112.81
2023-04-16T18:18:24.783Z,102114.53
2023-04-16T18:20:53.853Z,102108.34
2023-04-16T18:23:22.687Z,102100.44
2023-04-16T18:25:49.307Z,102110.06
2023-04-16T18:28:17.641Z,102110.00
2023-04-16T18:30:44.349Z,102109.97
2023-04-16T18:33:42.719Z,102108.19
2023-04-16T18:36:09.847Z,102113.44
2023-04-16T18:38:49.434Z,102109.88
2023-04-16T18:41:23.245Z,102108.97
2023-04-16T18:43:50.982Z,102104.56
2023-04-16T18:46:17.927Z,102112.41
2023-04-16T18:48:45.376Z,102101.84
2023-04-16T18:51:13.633Z,102099.22
2023-04-16T18:53:44.377Z,102108.75
2023-04-16T18:56:12.513Z,102110.50
2023-04-16T18:58:43.477Z,102118.31
2023-04-16T19:01:13.056Z,102116.50
2023-04-16T19:03:40.963Z,102110.31
2023-04-16T19:06:08.122Z,102113.75
2023-04-16T19:08:35.065Z,102113.69
2023-04-16T19:11:04.549Z,102114.50
2023-04-16T19:13:33.695Z,102116.19
2023-04-16T19:16:01.694Z,102114.38
2023-04-16T19:18:31.546Z,102116.13
2023-04-16T19:21:04.064Z,102113.47
2023-04-16T19:23:30.682Z,102109.94
2023-04-16T19:25:57.847Z,102121.25
2023-04-16T19:28:25.275Z,102121.19
2023-04-16T19:30:52.765Z,102130.78
2023-04-16T19:33:19.732Z,102127.22
2023-04-16T19:35:47.086Z,102132.41
2023-04-16T19:38:13.709Z,102127.09
2023-04-16T19:40:43.143Z,102127.94
2023-04-16T19:43:10.074Z,102124.34
2023-04-16T19:45:42.866Z,102123.34
2023-04-16T19:48:12.121Z,102125.91
2023-04-16T19:50:40.644Z,102126.69
2023-04-16T19:53:11.582Z,102124.88
2023-04-16T19:55:42.960Z,102124.81
2023-04-16T19:58:09.914Z,102126.47
2023-04-16T20:00:38.582Z,102116.75
2023-04-16T20:03:05.671Z,102127.09
2023-04-16T20:05:32.319Z,102125.22
2023-04-16T20:07:58.951Z,102125.06
2023-04-16T20:10:26.696Z,102127.59
2023-04-16T20:13:02.681Z,102130.94
2023-04-16T20:15:29.316Z,102127.31
2023-04-16T20:17:56.395Z,102138.53
2023-04-16T20:20:25.597Z,102128.03
2023-04-16T20:22:52.672Z,102130.56
2023-04-16T20:25:19.494Z,102134.84
2023-04-16T20:27:46.353Z,102127.75
2023-04-16T20:30:16.655Z,102134.75
2023-04-16T20:32:43.409Z,102131.22
2023-04-16T20:35:11.362Z,102138.09
2023-04-16T20:37:38.710Z,102134.56
2023-04-16T20:40:08.332Z,102130.97
2023-04-16T20:42:35.249Z,102135.25
2023-04-16T20:45:02.180Z,102132.53
2023-04-16T20:47:28.785Z,102131.53
2023-04-16T20:49:55.457Z,102129.69
2023-04-16T20:52:25.896Z,102130.50
2023-04-16T20:54:52.504Z,102123.47
2023-04-16T20:57:19.198Z,102125.16
2023-04-16T20:59:46.130Z,102129.38
2023-04-16T21:02:15.079Z,102125.78
2023-04-16T21:04:41.867Z,102125.63
2023-04-16T21:07:08.591Z,102132.56
2023-04-16T21:09:35.178Z,102124.63
2023-04-16T21:12:02.755Z,102137.56
2023-04-16T21:14:29.397Z,102133.13
2023-04-16T21:16:56.049Z,102134.81
2023-04-16T21:19:22.656Z,102133.81
2023-04-16T21:21:49.379Z,102130.31
2023-04-16T21:24:15.967Z,102127.59
2023-04-16T21:26:42.744Z,102126.59
2023-04-16T21:29:09.418Z,102125.66
2023-04-16T21:31:36.117Z,102122.06
2023-04-16T21:34:02.776Z,102130.69
2023-04-16T21:36:32.066Z,102131.47
2023-04-16T21:38:58.698Z,102132.38
2023-04-16T21:41:25.261Z,102134.06
2023-04-16T21:43:51.883Z,102135.81
2023-04-16T21:46:21.495Z,102136.69
2023-04-16T21:48:48.568Z,102132.38
2023-04-16T21:51:16.789Z,102134.97
2023-04-16T21:53:43.595Z,102130.53
2023-04-16T21:56:10.205Z,102136.59
2023-04-16T21:58:36.788Z,102127.81
2023-04-16T22:01:03.408Z,102135.63
2023-04-16T22:03:31.182Z,102130.41
2023-04-16T22:06:01.039Z,102129.53
2023-04-16T22:08:31.067Z,102126.94
2023-04-16T22:10:59.327Z,102122.53
2023-04-16T22:13:26.413Z,102125.09
2023-04-16T22:15:55.536Z,102135.41
2023-04-16T22:18:25.457Z,102128.41
2023-04-16T22:20:55.892Z,102128.38
2023-04-16T22:23:23.716Z,102125.75
2023-04-16T22:25:50.732Z,102126.63
2023-04-16T22:28:17.437Z,102119.63
2023-04-16T22:30:44.047Z,102124.75
2023-04-16T22:33:11.272Z,102120.34
2023-04-16T22:35:41.404Z,102115.16
2023-04-16T22:38:08.090Z,102117.75
2023-04-16T22:40:34.682Z,102114.28
2023-04-16T22:43:01.330Z,102123.78
2023-04-16T22:45:27.995Z,102121.16
2023-04-16T22:47:54.624Z,102124.66
2023-04-16T22:50:22.642Z,102122.00
2023-04-16T22:52:49.260Z,102126.25
2023-04-16T22:55:16.120Z,102128.03
2023-04-16T22:57:43.508Z,102120.25
2023-04-16T23:00:16.045Z,102128.09
2023-04-16T23:02:43.239Z,102126.44
2023-04-16T23:05:11.756Z,102126.50
2023-04-16T23:07:38.674Z,102128.25
2023-04-16T23:10:05.852Z,102132.69
2023-04-16T23:12:32.555Z,102130.94
2023-04-16T23:15:00.842Z,102131.88
2023-04-16T23:17:28.183Z,102138.03
2023-04-16T23:19:57.186Z,102142.41
2023-04-16T23:22:23.808Z,102143.28
2023-04-16T23:24:50.545Z,102148.47
2023-04-16T23:27:18.718Z,102150.22
2023-04-16T23:29:45.394Z,102151.91
2023-04-16T23:32:11.940Z,102146.75
2023-04-16T23:34:38.547Z,102154.56
2023-04-16T23:37:05.168Z,102148.47
2023-04-16T23:39:31.797Z,102144.16
2023-04-16T23:41:59.958Z,102152.84
2023-04-16T23:44:27.384Z,102155.47
2023-04-16T23:46:54.067Z,102157.19
2023-04-16T23:49:20.930Z,102149.34
2023-04-16T23:51:47.568Z,102146.75
2023-04-16T23:54:14.848Z,102145.00
2023-04-16T23:56:41.593Z,102148.47
2023-04-16T23:59:10.872Z,102145.03
